Time;durP1;ratioP1;P1;durP2;ratioP2;P2;SDS_P1;SDS_P2;PMS_P1;PMS_P2;Temp;Humidity;BMP_temperature;BMP_pressure;BME280_temperature;BME280_humidity;BME280_pressure;Samples;Min_cycle;Max_cycle;Signal;HPM_P1;HPM_P2
2021/06/22 00:00:52;;;;;;;3.80;2.47;;;;;;;23.85;59.67;99356.13;2051852;28;20033;-65
2021/06/22 00:01:53;;;;;;;2.70;1.80;;;;;;;23.84;59.75;99352.53;2057985;28;20754;-65
2021/06/22 00:02:54;;;;;;;1.70;1.60;;;;;;;23.85;59.56;99356.13;2053495;28;20037;-66
2021/06/22 00:03:54;;;;;;;3.60;2.00;;;;;;;23.84;59.66;99355.28;2059530;28;20034;-66
2021/06/22 00:04:55;;;;;;;2.53;2.10;;;;;;;23.84;59.66;99360.78;2056306;28;20096;-65
2021/06/22 00:05:55;;;;;;;3.23;1.90;;;;;;;23.84;59.74;99360.78;2056391;28;20026;-65
2021/06/22 00:07:01;;;;;;;2.63;2.20;;;;;;;23.84;59.63;99355.28;2052926;28;20054;-66
2021/06/22 00:08:01;;;;;;;2.95;2.08;;;;;;;23.84;59.51;99348.94;2059304;28;20114;-65
2021/06/22 00:09:02;;;;;;;2.37;2.10;;;;;;;23.84;59.78;99349.78;2049360;28;20116;-65
2021/06/22 00:10:04;;;;;;;2.75;2.28;;;;;;;23.84;59.65;99349.78;2059832;28;21116;-65
2021/06/22 00:11:05;;;;;;;2.47;2.15;;;;;;;23.85;59.67;99353.38;2056818;28;20114;-65
2021/06/22 00:12:06;;;;;;;2.33;1.80;;;;;;;23.84;59.76;99349.78;2052005;28;20123;-65
2021/06/22 00:13:07;;;;;;;2.67;2.10;;;;;;;23.84;59.57;99341.53;2055102;28;20026;-66
2021/06/22 00:14:07;;;;;;;2.50;2.10;;;;;;;23.83;59.68;99337.06;2053703;28;20057;-65
2021/06/22 00:15:12;;;;;;;1.90;1.63;;;;;;;23.83;59.78;99339.78;2052375;28;20030;-66
2021/06/22 00:16:13;;;;;;;3.45;1.80;;;;;;;23.83;59.76;99337.06;2051803;28;20540;-66
2021/06/22 00:17:13;;;;;;;3.17;2.10;;;;;;;23.83;59.64;99337.06;2053870;28;20022;-65
2021/06/22 00:18:14;;;;;;;2.30;2.10;;;;;;;23.83;59.81;99342.56;2048350;28;20374;-65
2021/06/22 00:19:14;;;;;;;2.50;2.00;;;;;;;23.84;59.55;99344.28;2046324;28;20031;-66
2021/06/22 00:20:15;;;;;;;2.10;1.90;;;;;;;23.83;59.68;99342.56;2054026;28;20114;-65
2021/06/22 00:21:16;;;;;;;2.42;1.80;;;;;;;23.84;59.62;99347.03;2051720;28;20022;-65
2021/06/22 00:22:16;;;;;;;2.60;2.07;;;;;;;23.84;59.66;99340.69;2049932;28;20103;-65
2021/06/22 00:23:17;;;;;;;3.63;1.87;;;;;;;23.84;59.69;99338.78;2053459;28;20042;-66
2021/06/22 00:24:17;;;;;;;2.60;1.80;;;;;;;23.84;59.62;99344.28;2050137;28;20031;-65
2021/06/22 00:25:19;;;;;;;2.93;2.03;;;;;;;23.83;59.52;99345.31;2048129;28;20213;-65
2021/06/22 00:26:20;;;;;;;2.55;1.67;;;;;;;23.84;59.61;99337.94;2057452;28;20041;-66
2021/06/22 00:27:21;;;;;;;2.17;1.77;;;;;;;23.84;59.61;99341.53;2060924;28;20058;-65
2021/06/22 00:28:21;;;;;;;2.60;1.80;;;;;;;23.84;59.62;99344.28;2061940;28;20033;-66
2021/06/22 00:29:23;;;;;;;2.70;2.10;;;;;;;23.84;59.81;99347.03;2059419;28;20501;-65
2021/06/22 00:30:24;;;;;;;2.25;2.00;;;;;;;23.85;59.59;99345.97;2061246;28;20462;-65
2021/06/22 00:31:25;;;;;;;3.05;1.80;;;;;;;23.84;59.50;99340.69;2060446;28;20031;-65
2021/06/22 00:32:25;;;;;;;3.17;2.00;;;;;;;23.84;59.46;99337.94;2061283;28;20579;-66
2021/06/22 00:33:25;;;;;;;2.63;2.17;;;;;;;23.83;59.71;99348.06;2060625;28;20067;-65
2021/06/22 00:34:26;;;;;;;2.33;2.00;;;;;;;23.82;59.75;99346.38;2062098;28;20029;-65
2021/06/22 00:35:26;;;;;;;3.00;2.13;;;;;;;23.82;59.70;99340.88;2061388;28;20042;-65
2021/06/22 00:36:27;;;;;;;2.50;2.03;;;;;;;23.83;59.66;99348.06;2059705;28;20042;-65
2021/06/22 00:37:27;;;;;;;2.53;2.17;;;;;;;23.84;59.67;99355.28;2060002;28;20044;-65
2021/06/22 00:38:28;;;;;;;2.63;2.00;;;;;;;23.83;59.77;99353.56;2061188;28;20453;-65
2021/06/22 00:39:28;;;;;;;2.77;2.00;;;;;;;23.83;59.63;99353.56;2059856;28;20049;-66
2021/06/22 00:40:29;;;;;;;6.50;2.10;;;;;;;23.83;59.81;99353.56;2056942;28;20076;-65
2021/06/22 00:41:29;;;;;;;2.07;1.83;;;;;;;23.82;59.72;99357.38;2061844;28;20041;-65
2021/06/22 00:42:30;;;;;;;2.37;1.77;;;;;;;23.83;59.75;99344.47;2060636;28;20868;-66
2021/06/22 00:43:30;;;;;;;2.83;2.37;;;;;;;23.82;59.68;99346.38;2062395;28;20093;-65
2021/06/22 00:44:30;;;;;;;2.30;2.10;;;;;;;23.82;59.68;99346.38;2061051;28;20068;-66
2021/06/22 00:45:33;;;;;;;3.00;1.70;;;;;;;23.82;59.59;99351.88;2062484;28;20082;-65
2021/06/22 00:46:35;;;;;;;2.78;1.80;;;;;;;23.82;59.79;99346.38;2060942;28;20548;-66
2021/06/22 00:47:35;;;;;;;2.65;2.03;;;;;;;23.83;59.63;99344.47;2061155;28;20101;-65
2021/06/22 00:48:36;;;;;;;3.13;2.10;;;;;;;23.82;59.75;99340.88;2064365;28;20033;-65
2021/06/22 00:49:36;;;;;;;2.30;1.70;;;;;;;23.82;59.76;99343.63;2065746;28;20026;-65
2021/06/22 00:50:37;;;;;;;2.23;1.83;;;;;;;23.82;59.66;99346.38;2069007;28;20041;-65
2021/06/22 00:51:37;;;;;;;3.03;1.53;;;;;;;23.82;59.69;99340.03;2063485;28;20480;-65
2021/06/22 00:52:38;;;;;;;3.43;1.70;;;;;;;23.83;59.52;99348.06;2061434;28;20060;-65
2021/06/22 00:53:38;;;;;;;2.00;1.47;;;;;;;23.82;59.67;99349.13;2060988;28;20029;-65
2021/06/22 00:54:44;;;;;;;2.53;1.83;;;;;;;23.82;59.75;99345.53;2061175;28;20121;-65
2021/06/22 00:55:44;;;;;;;2.40;1.90;;;;;;;23.81;59.78;99350.16;2053540;28;20030;-65
2021/06/22 00:56:45;;;;;;;3.13;2.07;;;;;;;23.82;59.66;99346.38;2057164;28;20025;-65
2021/06/22 00:57:45;;;;;;;2.93;2.30;;;;;;;23.82;59.71;99346.38;2070793;28;20100;-65
2021/06/22 00:58:46;;;;;;;2.80;1.80;;;;;;;23.82;59.70;99345.53;2060985;28;20442;-65
2021/06/22 00:59:47;;;;;;;2.47;1.77;;;;;;;23.81;59.64;99341.06;2060913;28;20018;-65
2021/06/22 01:00:48;;;;;;;2.10;1.85;;;;;;;23.82;59.61;99340.88;2058524;28;20052;-66
2021/06/22 01:01:50;;;;;;;2.40;2.10;;;;;;;23.82;59.62;99349.13;2052784;28;20074;-65
2021/06/22 01:02:54;;;;;;;1.90;1.70;;;;;;;23.81;59.60;99350.16;2053036;28;20692;-66
2021/06/22 01:03:54;;;;;;;1.98;1.83;;;;;;;23.82;59.87;99351.03;2053149;28;20042;-66
2021/06/22 01:04:55;;;;;;;2.13;1.80;;;;;;;23.81;59.78;99341.06;2058401;28;20026;-65
2021/06/22 01:05:55;;;;;;;2.43;2.23;;;;;;;23.82;59.69;99345.53;2053040;28;20034;-65
2021/06/22 01:07:02;;;;;;;2.23;1.67;;;;;;;23.79;59.82;99341.28;2056720;28;20034;-65
2021/06/22 01:08:03;;;;;;;1.85;1.58;;;;;;;23.80;59.76;99342.97;2060596;28;20022;-65
2021/06/22 01:09:05;;;;;;;3.38;2.17;;;;;;;23.80;59.73;99337.47;2059853;28;20065;-65
2021/06/22 01:10:07;;;;;;;2.72;1.92;;;;;;;23.80;59.70;99337.47;2061175;28;20044;-65
2021/06/22 01:11:07;;;;;;;2.03;1.73;;;;;;;23.82;59.71;99348.28;2060261;28;20045;-65
2021/06/22 01:12:08;;;;;;;2.07;1.70;;;;;;;23.81;59.69;99343.81;2060941;28;20715;-65
2021/06/22 01:13:09;;;;;;;2.47;2.00;;;;;;;23.81;59.78;99343.81;2064110;28;20119;-65
2021/06/22 01:14:10;;;;;;;2.50;1.93;;;;;;;23.81;59.78;99341.06;2062666;28;20336;-66
2021/06/22 01:15:21;;;;;;;2.03;1.83;;;;;;;23.82;59.67;99345.53;2063864;28;20058;-66
2021/06/22 01:16:26;;;;;;;2.63;2.10;;;;;;;23.80;59.71;99340.22;2067367;28;20080;-65
2021/06/22 01:17:30;;;;;;;2.80;2.35;;;;;;;23.81;59.71;99344.66;2064778;28;20041;-65
2021/06/22 01:18:30;;;;;;;2.22;1.67;;;;;;;23.81;59.69;99338.31;2062433;28;20029;-65
2021/06/22 01:19:32;;;;;;;2.10;1.80;;;;;;;23.81;59.76;99338.31;2063938;28;20018;-66
2021/06/22 01:20:33;;;;;;;2.83;1.90;;;;;;;23.80;59.76;99337.47;2067992;28;20179;-65
2021/06/22 01:21:35;;;;;;;2.33;1.83;;;;;;;23.81;59.88;99344.66;2063550;28;20053;-65
2021/06/22 01:22:37;;;;;;;1.77;1.58;;;;;;;23.80;59.72;99347.63;2065564;28;20323;-65
2021/06/22 01:23:37;;;;;;;2.47;1.95;;;;;;;23.80;59.72;99342.97;2071011;28;20640;-66
2021/06/22 01:24:38;;;;;;;1.97;1.77;;;;;;;23.79;59.65;99341.28;2061379;28;20026;-66
2021/06/22 01:25:39;;;;;;;2.13;1.80;;;;;;;23.79;59.66;99346.78;2059828;28;20116;-65
2021/06/22 01:26:45;;;;;;;2.97;1.70;;;;;;;23.79;59.66;99346.78;2062925;28;20036;-65
2021/06/22 01:27:46;;;;;;;2.05;1.67;;;;;;;23.80;59.89;99353.13;2065753;28;20032;-65
2021/06/22 01:28:46;;;;;;;2.57;1.53;;;;;;;23.80;59.79;99353.13;2069952;28;20033;-65
2021/06/22 01:29:47;;;;;;;1.90;1.60;;;;;;;23.81;59.70;99355.66;2063243;28;20320;-65
2021/06/22 01:30:48;;;;;;;3.10;1.73;;;;;;;23.80;59.76;99351.22;2060924;28;20705;-65
2021/06/22 01:31:48;;;;;;;1.60;1.30;;;;;;;23.81;59.73;99354.81;2070737;28;20032;-65
2021/06/22 01:32:50;;;;;;;2.67;1.63;;;;;;;23.79;59.71;99355.03;2063977;28;20824;-65
2021/06/22 01:33:50;;;;;;;2.42;1.70;;;;;;;23.79;59.72;99357.78;2062643;28;20057;-65
2021/06/22 01:34:50;;;;;;;2.40;1.80;;;;;;;23.79;59.78;99352.28;2059805;28;20029;-65
2021/06/22 01:35:51;;;;;;;2.30;1.97;;;;;;;23.79;59.78;99352.28;2056209;28;20497;-65
2021/06/22 01:36:53;;;;;;;2.77;1.70;;;;;;;23.81;59.75;99355.66;2059848;28;20200;-65
2021/06/22 01:38:07;;;;;;;2.17;1.65;;;;;;;23.77;59.76;99354.38;2060806;28;20026;-65
2021/06/22 01:39:13;;;;;;;1.90;1.55;;;;;;;23.77;59.89;99353.53;2057453;28;20026;-65
2021/06/22 01:40:14;;;;;;;2.30;1.70;;;;;;;23.78;59.81;99355.22;2060283;28;20125;-65
2021/06/22 01:41:15;;;;;;;2.40;1.63;;;;;;;23.77;59.56;99354.38;2061944;28;20053;-65
2021/06/22 01:42:16;;;;;;;1.95;1.75;;;;;;;23.77;59.76;99357.13;2060909;28;20022;-65
2021/06/22 01:43:16;;;;;;;2.63;1.90;;;;;;;23.79;59.79;99357.78;2061544;28;20034;-66
2021/06/22 01:44:17;;;;;;;1.87;1.70;;;;;;;23.79;59.79;99357.78;2055403;28;20041;-65
2021/06/22 01:45:18;;;;;;;2.20;1.83;;;;;;;23.78;59.78;99356.06;2063356;28;20250;-65
2021/06/22 01:46:19;;;;;;;3.77;2.07;;;;;;;23.79;59.55;99357.78;2063178;28;20620;-65
2021/06/22 01:47:20;;;;;;;1.80;1.50;;;;;;;23.78;59.73;99356.06;2063582;28;20018;-65
2021/06/22 01:48:20;;;;;;;2.17;1.80;;;;;;;23.77;59.81;99354.38;2062819;28;20069;-65
2021/06/22 01:49:21;;;;;;;2.30;1.70;;;;;;;23.77;59.73;99354.38;2063559;28;20508;-65
2021/06/22 01:50:21;;;;;;;3.93;2.20;;;;;;;23.78;59.76;99360.72;2062757;28;20075;-65
2021/06/22 01:51:22;;;;;;;2.10;1.90;;;;;;;23.76;59.73;99355.41;2055426;28;20018;-65
2021/06/22 01:52:22;;;;;;;1.53;1.43;;;;;;;23.78;59.87;99364.31;2059947;28;20049;-65
2021/06/22 01:53:35;;;;;;;2.00;1.73;;;;;;;23.77;59.82;99359.03;2058114;28;20117;-65
2021/06/22 01:54:35;;;;;;;1.92;1.73;;;;;;;23.77;59.75;99348.88;2061066;28;20397;-65
2021/06/22 01:55:37;;;;;;;3.97;1.90;;;;;;;23.77;59.77;99356.28;2061583;28;20492;-65
2021/06/22 01:56:38;;;;;;;2.60;1.63;;;;;;;23.77;59.75;99359.88;2062075;28;20787;-65
2021/06/22 01:57:38;;;;;;;1.63;1.50;;;;;;;23.77;59.75;99362.63;2064994;28;20390;-65
2021/06/22 01:58:39;;;;;;;1.70;1.50;;;;;;;23.77;59.79;99359.88;2061158;28;20269;-65
2021/06/22 01:59:41;;;;;;;2.77;1.70;;;;;;;23.78;59.87;99363.47;2061912;28;20962;-65
2021/06/22 02:00:43;;;;;;;2.53;1.95;;;;;;;23.78;59.81;99367.06;2062176;28;20427;-65
2021/06/22 02:01:43;;;;;;;2.20;1.67;;;;;;;23.77;59.85;99359.03;2062550;28;20037;-65
2021/06/22 02:02:44;;;;;;;1.80;1.53;;;;;;;23.77;59.90;99364.53;2056695;28;20405;-65
2021/06/22 02:03:45;;;;;;;2.10;1.90;;;;;;;23.78;59.68;99363.47;2059084;28;20133;-65
2021/06/22 02:04:46;;;;;;;2.97;1.85;;;;;;;23.77;59.83;99359.88;2062065;28;20029;-66
2021/06/22 02:05:48;;;;;;;2.87;1.90;;;;;;;23.77;59.83;99353.53;2062280;28;20053;-65
2021/06/22 02:06:48;;;;;;;1.85;1.58;;;;;;;23.77;59.70;99350.78;2056703;28;20474;-65
2021/06/22 02:07:49;;;;;;;1.87;1.47;;;;;;;23.76;59.81;99355.41;2056761;28;20026;-65
2021/06/22 02:08:49;;;;;;;3.00;1.63;;;;;;;23.76;59.82;99355.41;2061083;28;20516;-65
2021/06/22 02:09:50;;;;;;;2.03;1.70;;;;;;;23.76;59.81;99358.16;2060568;28;20030;-65
2021/06/22 02:10:50;;;;;;;2.53;1.97;;;;;;;23.75;59.86;99362.81;2061048;28;20018;-65
2021/06/22 02:11:51;;;;;;;2.67;1.60;;;;;;;23.75;59.84;99350.97;2063650;28;20033;-65
2021/06/22 02:12:51;;;;;;;1.97;1.70;;;;;;;23.75;59.74;99361.97;2051669;28;20085;-65
2021/06/22 02:13:52;;;;;;;2.47;1.60;;;;;;;23.75;59.98;99356.47;2054930;28;20050;-65
2021/06/22 02:14:52;;;;;;;2.20;1.77;;;;;;;23.74;59.85;99361.13;2061129;28;20053;-65
2021/06/22 02:15:53;;;;;;;1.87;1.53;;;;;;;23.75;59.77;99361.97;2058764;28;20096;-65
2021/06/22 02:16:54;;;;;;;2.30;1.73;;;;;;;23.75;59.75;99362.81;2064171;28;20021;-65
2021/06/22 02:17:54;;;;;;;1.97;1.50;;;;;;;23.75;59.78;99365.56;2061467;28;20109;-65
2021/06/22 02:18:54;;;;;;;2.27;1.40;;;;;;;23.76;59.83;99363.66;2059057;28;20018;-65
2021/06/22 02:19:55;;;;;;;2.20;1.80;;;;;;;23.76;59.70;99369.16;2061434;28;20099;-65
2021/06/22 02:20:55;;;;;;;1.87;1.57;;;;;;;23.76;59.68;99369.16;2062312;28;20741;-65
2021/06/22 02:21:56;;;;;;;2.03;1.50;;;;;;;23.77;59.73;99368.13;2061699;28;20449;-65
2021/06/22 02:23:02;;;;;;;2.37;1.87;;;;;;;23.75;59.77;99362.81;2061498;28;20029;-65
2021/06/22 02:24:03;;;;;;;1.60;1.50;;;;;;;23.75;59.82;99367.47;2057751;28;20068;-65
2021/06/22 02:25:06;;;;;;;2.05;1.80;;;;;;;23.77;59.74;99364.53;2056371;28;20105;-65
2021/06/22 02:26:06;;;;;;;3.55;1.80;;;;;;;23.76;59.78;99369.16;2052335;28;20053;-65
2021/06/22 02:27:07;;;;;;;2.67;1.80;;;;;;;23.76;59.73;99369.16;2055055;28;20033;-65
2021/06/22 02:28:11;;;;;;;1.50;1.30;;;;;;;23.75;59.75;99368.31;2054142;28;20068;-65
2021/06/22 02:29:11;;;;;;;1.85;1.42;;;;;;;23.75;59.74;99367.47;2053812;28;20026;-65
2021/06/22 02:30:15;;;;;;;2.37;1.80;;;;;;;23.75;59.80;99368.31;2052991;28;20033;-65
2021/06/22 02:31:16;;;;;;;2.40;1.55;;;;;;;23.75;59.74;99367.47;2058465;28;20461;-65
2021/06/22 02:32:17;;;;;;;1.90;1.70;;;;;;;23.75;59.76;99367.47;2047726;28;20159;-65
2021/06/22 02:33:17;;;;;;;3.03;1.57;;;;;;;23.75;59.82;99365.56;2050977;28;20109;-65
2021/06/22 02:34:18;;;;;;;2.53;1.80;;;;;;;23.76;59.76;99371.91;2058211;28;20034;-65
2021/06/22 02:35:18;;;;;;;1.60;1.50;;;;;;;23.75;59.66;99368.31;2052792;28;20030;-65
2021/06/22 02:36:23;;;;;;;2.73;1.90;;;;;;;23.75;59.70;99372.97;2052520;28;20102;-65
2021/06/22 02:37:24;;;;;;;2.25;1.70;;;;;;;23.74;59.92;99372.13;2054375;28;20497;-65
2021/06/22 02:38:24;;;;;;;2.00;1.57;;;;;;;23.74;59.69;99382.28;2052690;28;20432;-65
2021/06/22 02:39:24;;;;;;;2.43;1.70;;;;;;;23.74;59.84;99382.28;2046436;28;20034;-65
2021/06/22 02:40:27;;;;;;;3.13;2.00;;;;;;;23.75;59.63;99370.22;2052829;28;20574;-65
2021/06/22 02:41:27;;;;;;;1.88;1.55;;;;;;;23.75;59.88;99372.97;2051451;28;20697;-65
2021/06/22 02:42:28;;;;;;;2.30;1.90;;;;;;;23.73;59.84;99367.66;2053985;28;20022;-65
2021/06/22 02:43:28;;;;;;;1.50;1.27;;;;;;;23.74;59.74;99371.28;2050439;28;20030;-66
2021/06/22 02:44:29;;;;;;;2.13;1.33;;;;;;;23.74;59.72;99371.28;2053730;28;20027;-65
2021/06/22 02:45:30;;;;;;;2.77;1.90;;;;;;;23.74;59.65;99374.03;2055551;28;20663;-65
2021/06/22 02:46:30;;;;;;;1.60;1.50;;;;;;;23.74;59.68;99372.13;2052491;28;20030;-65
2021/06/22 02:47:31;;;;;;;1.87;1.67;;;;;;;23.74;59.70;99371.28;2052940;28;20026;-65
2021/06/22 02:48:31;;;;;;;2.07;1.70;;;;;;;23.74;59.85;99371.28;2051695;28;20833;-65
2021/06/22 02:49:32;;;;;;;1.43;1.30;;;;;;;23.74;59.75;99365.78;2054012;28;20037;-65
2021/06/22 02:50:32;;;;;;;1.90;1.60;;;;;;;23.74;59.70;99376.78;2053479;28;20117;-65
2021/06/22 02:51:33;;;;;;;2.47;1.90;;;;;;;23.74;59.76;99371.28;2053159;28;20026;-65
2021/06/22 02:52:33;;;;;;;1.97;1.73;;;;;;;23.73;59.75;99364.06;2061132;28;20112;-65
2021/06/22 02:53:34;;;;;;;2.03;1.70;;;;;;;23.74;59.79;99368.53;2058668;28;20019;-65
2021/06/22 02:54:37;;;;;;;2.60;1.70;;;;;;;23.74;59.77;99371.28;2062005;28;20026;-65
2021/06/22 02:55:39;;;;;;;1.77;1.40;;;;;;;23.73;59.83;99373.16;2055429;28;20022;-65
2021/06/22 02:56:39;;;;;;;2.15;1.75;;;;;;;23.73;59.79;99370.41;2051539;28;20122;-65
2021/06/22 02:57:40;;;;;;;1.93;1.67;;;;;;;23.73;59.70;99375.91;2052344;28;20306;-65
2021/06/22 02:58:40;;;;;;;1.90;1.67;;;;;;;23.72;59.72;99373.34;2043476;28;20341;-65
2021/06/22 02:59:41;;;;;;;1.57;1.40;;;;;;;23.72;59.76;99379.69;2045131;28;20588;-65
2021/06/22 03:00:42;;;;;;;1.70;1.33;;;;;;;23.72;59.72;99374.19;2055897;28;20374;-65
2021/06/22 03:01:42;;;;;;;2.53;1.60;;;;;;;23.73;59.75;99380.56;2061757;28;20083;-65
2021/06/22 03:02:43;;;;;;;2.47;1.87;;;;;;;23.73;59.63;99386.91;2058142;28;20076;-65
2021/06/22 03:03:43;;;;;;;1.83;1.60;;;;;;;23.73;59.76;99388.81;2057147;28;20018;-65
2021/06/22 03:04:44;;;;;;;2.00;1.80;;;;;;;23.73;59.71;99386.06;2053501;28;20046;-65
2021/06/22 03:05:44;;;;;;;2.30;1.63;;;;;;;23.72;59.79;99385.19;2049943;28;20018;-65
2021/06/22 03:06:45;;;;;;;2.30;1.80;;;;;;;23.73;59.70;99384.16;2045628;28;20049;-65
2021/06/22 03:07:46;;;;;;;1.60;1.40;;;;;;;23.72;59.69;99385.19;2045365;28;20042;-65
2021/06/22 03:08:46;;;;;;;1.77;1.50;;;;;;;23.72;59.70;99389.84;2044056;28;20074;-65
2021/06/22 03:09:47;;;;;;;2.37;1.60;;;;;;;23.73;59.71;99386.06;2051756;28;20769;-65
2021/06/22 03:10:47;;;;;;;1.80;1.43;;;;;;;23.73;59.70;99386.06;2051319;28;20072;-66
2021/06/22 03:11:49;;;;;;;1.87;1.50;;;;;;;23.73;59.71;99391.56;2054223;28;20030;-65
2021/06/22 03:12:50;;;;;;;2.80;1.35;;;;;;;23.72;59.61;99398.97;2049687;28;20417;-65
2021/06/22 03:13:51;;;;;;;1.63;1.40;;;;;;;23.74;59.77;99404.31;2053413;28;20030;-65
2021/06/22 03:14:51;;;;;;;1.53;1.43;;;;;;;23.72;59.74;99403.63;2041450;28;20113;-65
2021/06/22 03:15:51;;;;;;;2.13;1.40;;;;;;;23.73;59.63;99394.31;2044871;28;20101;-65
2021/06/22 03:16:52;;;;;;;2.13;1.60;;;;;;;23.72;59.70;99401.72;2045583;28;20027;-65
2021/06/22 03:17:53;;;;;;;1.83;1.63;;;;;;;23.74;59.56;99401.56;2053279;28;20087;-65
2021/06/22 03:18:53;;;;;;;1.77;1.40;;;;;;;23.73;59.61;99405.34;2049931;28;20983;-65
2021/06/22 03:19:54;;;;;;;1.93;1.57;;;;;;;23.72;59.79;99401.72;2051608;28;20383;-65
2021/06/22 03:20:54;;;;;;;1.80;1.53;;;;;;;23.72;59.66;99395.34;2053730;28;20476;-65
2021/06/22 03:21:55;;;;;;;1.77;1.53;;;;;;;23.71;59.82;99405.53;2053604;28;20026;-65
2021/06/22 03:22:56;;;;;;;1.80;1.37;;;;;;;23.71;59.57;99404.63;2048063;28;20022;-65
2021/06/22 03:23:56;;;;;;;1.73;1.50;;;;;;;23.71;59.65;99410.16;2051643;28;20069;-66
2021/06/22 03:24:56;;;;;;;1.77;1.43;;;;;;;23.71;59.71;99404.63;2050120;28;21102;-65
2021/06/22 03:25:57;;;;;;;1.90;1.50;;;;;;;23.72;59.59;99403.63;2055020;28;20046;-65
2021/06/22 03:26:57;;;;;;;1.63;1.33;;;;;;;23.72;59.79;99411.88;2052099;28;20034;-65
2021/06/22 03:27:59;;;;;;;1.90;1.40;;;;;;;23.71;59.72;99402.78;2052630;28;20065;-65
2021/06/22 03:28:59;;;;;;;2.05;1.48;;;;;;;23.72;59.70;99406.38;2052317;28;20041;-65
2021/06/22 03:30:00;;;;;;;1.70;1.60;;;;;;;23.71;59.73;99410.16;2053414;28;20018;-65
2021/06/22 03:31:00;;;;;;;1.77;1.43;;;;;;;23.72;59.71;99406.38;2050815;28;20113;-66
2021/06/22 03:32:01;;;;;;;1.33;1.13;;;;;;;23.72;59.73;99403.63;2052824;28;20022;-65
2021/06/22 03:33:02;;;;;;;1.50;1.40;;;;;;;23.72;59.58;99406.38;2049701;28;20121;-65
2021/06/22 03:34:04;;;;;;;2.17;1.57;;;;;;;23.71;59.67;99410.16;2052931;28;20014;-65
2021/06/22 03:35:08;;;;;;;;;;;;;;;23.67;59.83;99406.09;2053865;28;20073;-65
2021/06/22 03:36:08;;;;;;;2.03;1.65;;;;;;;23.68;59.92;99405.88;2054863;28;19925;-65
2021/06/22 03:37:09;;;;;;;3.70;1.50;;;;;;;23.68;59.65;99408.63;2053471;28;20117;-65
2021/06/22 03:38:09;;;;;;;2.20;1.90;;;;;;;23.68;59.72;99405.03;2051790;28;20049;-65
2021/06/22 03:39:10;;;;;;;1.77;1.53;;;;;;;23.69;59.65;99403.97;2053683;28;20490;-65
2021/06/22 03:40:11;;;;;;;1.50;1.33;;;;;;;23.68;59.76;99405.88;2060252;28;20315;-65
2021/06/22 03:41:11;;;;;;;3.72;1.60;;;;;;;23.69;59.74;99406.72;2055324;28;20113;-65
2021/06/22 03:42:13;;;;;;;1.27;1.17;;;;;;;23.69;59.64;99412.25;2052760;28;20034;-65
2021/06/22 03:43:14;;;;;;;1.52;1.42;;;;;;;23.69;59.71;99415.00;2052284;28;20429;-65
2021/06/22 03:44:14;;;;;;;2.73;1.80;;;;;;;23.70;59.75;99419.47;2060700;28;20068;-65
2021/06/22 03:45:16;;;;;;;2.30;1.63;;;;;;;23.70;59.68;99413.97;2053531;28;20092;-65
2021/06/22 03:46:18;;;;;;;1.95;1.30;;;;;;;23.70;59.62;99419.47;2052700;28;20026;-65
2021/06/22 03:47:19;;;;;;;1.80;1.60;;;;;;;23.70;59.68;99413.97;2052961;28;20148;-65
2021/06/22 03:48:20;;;;;;;1.80;1.40;;;;;;;23.70;59.72;99408.47;2051621;28;20054;-65
2021/06/22 03:49:20;;;;;;;1.83;1.42;;;;;;;23.69;59.71;99409.50;2057998;28;20050;-65
2021/06/22 03:50:21;;;;;;;1.70;1.43;;;;;;;23.70;59.66;99416.72;2053771;28;20691;-65
2021/06/22 03:51:21;;;;;;;2.10;1.80;;;;;;;23.70;59.65;99413.97;2055242;28;20130;-65
2021/06/22 03:52:22;;;;;;;2.30;1.80;;;;;;;23.70;59.58;99411.22;2055348;28;20979;-65
2021/06/22 03:53:22;;;;;;;2.30;1.67;;;;;;;23.69;59.65;99418.63;2056841;28;20733;-65
2021/06/22 03:54:23;;;;;;;3.00;1.97;;;;;;;23.69;59.59;99413.13;2059717;28;20452;-65
2021/06/22 03:55:26;;;;;;;2.17;1.57;;;;;;;23.69;59.65;99418.63;2052340;28;20022;-65
2021/06/22 03:56:28;;;;;;;2.10;1.73;;;;;;;23.69;59.67;99417.75;2051710;28;20042;-65
2021/06/22 03:57:28;;;;;;;2.58;1.77;;;;;;;23.69;59.68;99418.63;2052668;28;20394;-65
2021/06/22 03:58:28;;;;;;;1.80;1.47;;;;;;;23.70;59.62;99424.97;2051498;28;20105;-65
2021/06/22 03:59:29;;;;;;;2.13;1.57;;;;;;;23.69;59.63;99426.88;2051818;28;20022;-65
2021/06/22 04:00:30;;;;;;;2.40;1.43;;;;;;;23.70;59.58;99422.22;2053109;28;20061;-65
2021/06/22 04:01:31;;;;;;;1.83;1.20;;;;;;;23.69;59.65;99426.88;2052483;28;20113;-65
2021/06/22 04:02:31;;;;;;;1.60;1.40;;;;;;;23.68;59.60;99425.16;2055598;28;20034;-65
2021/06/22 04:03:32;;;;;;;2.30;1.53;;;;;;;23.69;59.65;99426.00;2048084;28;20014;-65
2021/06/22 04:04:33;;;;;;;1.27;1.17;;;;;;;23.69;59.67;99428.75;2051741;28;20421;-65
2021/06/22 04:05:33;;;;;;;1.43;1.33;;;;;;;23.69;59.49;99428.75;2053168;28;20478;-65
2021/06/22 04:06:36;;;;;;;4.33;1.73;;;;;;;23.68;59.61;99427.06;2047872;28;20108;-65
2021/06/22 04:07:36;;;;;;;1.70;1.27;;;;;;;23.69;59.63;99423.25;2051957;28;20010;-65
2021/06/22 04:08:38;;;;;;;1.87;1.57;;;;;;;23.69;59.64;99434.25;2054019;28;20073;-65
2021/06/22 04:09:38;;;;;;;1.58;1.30;;;;;;;23.69;59.65;99434.25;2045157;28;20512;-65
2021/06/22 04:10:38;;;;;;;2.00;1.67;;;;;;;23.68;59.57;99432.56;2052409;28;20413;-65
2021/06/22 04:11:39;;;;;;;2.73;1.70;;;;;;;23.67;59.58;99428.13;2052205;28;20022;-64
2021/06/22 04:12:41;;;;;;;3.00;1.47;;;;;;;23.68;59.67;99427.06;2051372;28;20092;-65
2021/06/22 04:13:41;;;;;;;1.83;1.30;;;;;;;23.68;59.66;99429.81;2054348;28;20030;-65
2021/06/22 04:14:41;;;;;;;1.87;1.30;;;;;;;23.68;59.68;99432.56;2053093;28;20575;-65
2021/06/22 04:15:42;;;;;;;1.83;1.40;;;;;;;23.68;59.65;99435.31;2052256;28;20093;-65
2021/06/22 04:16:42;;;;;;;1.93;1.57;;;;;;;23.69;59.63;99431.50;2052614;28;20026;-65
2021/06/22 04:17:43;;;;;;;1.70;1.30;;;;;;;23.68;59.66;99432.56;2047029;28;20105;-65
2021/06/22 04:18:43;;;;;;;2.00;1.60;;;;;;;23.67;59.69;99428.97;2050891;28;20014;-65
2021/06/22 04:19:44;;;;;;;1.43;1.20;;;;;;;23.68;59.44;99427.06;2052894;28;20027;-65
2021/06/22 04:20:44;;;;;;;1.67;1.57;;;;;;;23.67;59.70;99430.88;2050682;28;20026;-65
2021/06/22 04:21:45;;;;;;;1.30;1.20;;;;;;;23.67;59.65;99430.88;2051872;28;20026;-65
2021/06/22 04:22:45;;;;;;;1.40;1.13;;;;;;;23.68;59.49;99432.56;2051918;28;20036;-65
2021/06/22 04:23:46;;;;;;;1.70;1.37;;;;;;;23.67;59.66;99431.72;2053262;28;20113;-65
2021/06/22 04:24:46;;;;;;;2.70;1.30;;;;;;;23.67;59.67;99437.22;2049758;28;20049;-65
2021/06/22 04:25:49;;;;;;;2.67;1.33;;;;;;;23.67;59.71;99436.38;2053766;28;20046;-65
2021/06/22 04:26:50;;;;;;;1.40;1.27;;;;;;;23.67;59.79;99437.22;2053872;28;20030;-65
2021/06/22 04:27:50;;;;;;;1.23;1.10;;;;;;;23.66;59.58;99435.50;2052042;28;20030;-65
2021/06/22 04:28:51;;;;;;;1.57;1.47;;;;;;;23.66;59.68;99432.75;2053416;28;20477;-65
2021/06/22 04:29:51;;;;;;;1.67;1.37;;;;;;;23.66;59.64;99440.16;2053712;28;20022;-65
2021/06/22 04:30:52;;;;;;;2.67;1.33;;;;;;;23.66;59.69;99441.00;2051975;28;20034;-65
2021/06/22 04:31:52;;;;;;;1.60;1.50;;;;;;;23.66;59.59;99442.91;2057528;28;20037;-65
2021/06/22 04:32:53;;;;;;;1.60;1.30;;;;;;;23.67;59.59;99448.22;2052571;28;20409;-65
2021/06/22 04:33:53;;;;;;;2.83;1.67;;;;;;;23.66;59.68;99442.91;2052736;28;20039;-65
2021/06/22 04:34:53;;;;;;;1.50;1.20;;;;;;;23.67;59.60;99447.38;2050528;28;20030;-66
2021/06/22 04:35:54;;;;;;;2.17;1.57;;;;;;;23.67;59.63;99441.88;2051218;28;20034;-65
2021/06/22 04:36:55;;;;;;;2.17;1.73;;;;;;;23.66;59.64;99448.41;2054518;28;20029;-65
2021/06/22 04:37:55;;;;;;;1.60;1.50;;;;;;;23.67;59.63;99452.88;2056713;28;20667;-65
2021/06/22 04:38:56;;;;;;;1.90;1.70;;;;;;;23.67;59.66;99452.88;2056178;28;20117;-65
2021/06/22 04:39:56;;;;;;;1.13;1.03;;;;;;;23.66;59.66;99449.25;2054281;28;20495;-65
2021/06/22 04:40:57;;;;;;;1.50;1.37;;;;;;;23.66;59.52;99451.16;2052207;28;20845;-65
2021/06/22 04:41:57;;;;;;;1.40;1.30;;;;;;;23.67;59.63;99450.97;2051301;28;20030;-65
2021/06/22 04:42:58;;;;;;;2.13;1.57;;;;;;;23.67;59.63;99452.88;2052398;28;20049;-65
2021/06/22 04:43:59;;;;;;;1.92;1.45;;;;;;;23.67;59.55;99452.88;2052717;28;20042;-65
2021/06/22 04:44:59;;;;;;;2.90;1.77;;;;;;;23.65;59.56;99453.06;2049420;28;20198;-65
2021/06/22 04:45:59;;;;;;;2.70;1.73;;;;;;;23.66;59.63;99446.50;2052732;28;20110;-65
2021/06/22 04:47:00;;;;;;;2.13;1.57;;;;;;;23.65;59.61;99446.72;2047876;28;20037;-65
2021/06/22 04:48:01;;;;;;;1.47;1.10;;;;;;;23.66;59.68;99448.41;2052569;28;20261;-65